sensor_id;sensor_type;location;lat;lon;timestamp;pressure;altitude;pressure_sealevel;temperature;humidity
77979;BME280;67169;50.268;8.694;2023-05-07T00:01:27;99655.00;;;14.67;72.58
77979;BME280;67169;50.268;8.694;2023-05-07T00:03:54;99654.63;;;14.58;72.50
77979;BME280;67169;50.268;8.694;2023-05-07T00:06:21;99652.03;;;14.56;72.87
77979;BME280;67169;50.268;8.694;2023-05-07T00:08:48;99650.72;;;14.63;72.64
77979;BME280;67169;50.268;8.694;2023-05-07T00:11:14;99646.44;;;14.59;72.69
77979;BME280;67169;50.268;8.694;2023-05-07T00:13:41;99653.06;;;14.69;72.28
77979;BME280;67169;50.268;8.694;2023-05-07T00:16:07;99646.22;;;14.62;72.94
77979;BME280;67169;50.268;8.694;2023-05-07T00:18:34;99653.75;;;14.57;73.00
77979;BME280;67169;50.268;8.694;2023-05-07T00:21:02;99647.75;;;14.52;74.05
77979;BME280;67169;50.268;8.694;2023-05-07T00:23:28;99647.81;;;14.51;74.19
77979;BME280;67169;50.268;8.694;2023-05-07T00:25:55;99649.00;;;14.45;73.78
77979;BME280;67169;50.268;8.694;2023-05-07T00:28:22;99652.50;;;14.47;73.82
77979;BME280;67169;50.268;8.694;2023-05-07T00:30:49;99651.91;;;14.42;73.82
77979;BME280;67169;50.268;8.694;2023-05-07T00:33:15;99650.06;;;14.42;74.38
77979;BME280;67169;50.268;8.694;2023-05-07T00:35:42;99651.63;;;14.46;73.66
77979;BME280;67169;50.268;8.694;2023-05-07T00:38:10;99654.09;;;14.51;73.42
77979;BME280;67169;50.268;8.694;2023-05-07T00:40:36;99649.34;;;14.39;74.53
77979;BME280;67169;50.268;8.694;2023-05-07T00:43:03;99651.09;;;14.40;74.13
77979;BME280;67169;50.268;8.694;2023-05-07T00:45:30;99649.53;;;14.36;73.87
77979;BME280;67169;50.268;8.694;2023-05-07T00:47:58;99647.09;;;14.47;73.97
77979;BME280;67169;50.268;8.694;2023-05-07T00:50:26;99644.72;;;14.41;73.96
77979;BME280;67169;50.268;8.694;2023-05-07T00:52:53;99638.06;;;14.31;73.20
77979;BME280;67169;50.268;8.694;2023-05-07T00:55:22;99633.88;;;14.41;73.43
77979;BME280;67169;50.268;8.694;2023-05-07T00:57:49;99627.78;;;14.37;74.07
77979;BME280;67169;50.268;8.694;2023-05-07T01:00:16;99627.16;;;14.32;74.61
77979;BME280;67169;50.268;8.694;2023-05-07T01:02:43;99627.88;;;14.36;74.68
77979;BME280;67169;50.268;8.694;2023-05-07T01:05:11;99617.56;;;14.27;74.93
77979;BME280;67169;50.268;8.694;2023-05-07T01:07:40;99626.22;;;14.33;74.94
77979;BME280;67169;50.268;8.694;2023-05-07T01:10:08;99629.25;;;14.27;74.98
77979;BME280;67169;50.268;8.694;2023-05-07T01:12:37;99631.34;;;14.22;75.70
77979;BME280;67169;50.268;8.694;2023-05-07T01:15:07;99624.88;;;14.24;75.18
77979;BME280;67169;50.268;8.694;2023-05-07T01:17:34;99623.13;;;14.23;75.09
77979;BME280;67169;50.268;8.694;2023-05-07T01:20:01;99636.44;;;14.28;74.78
77979;BME280;67169;50.268;8.694;2023-05-07T01:22:31;99633.94;;;14.23;75.26
77979;BME280;67169;50.268;8.694;2023-05-07T01:24:58;99616.31;;;14.16;75.19
77979;BME280;67169;50.268;8.694;2023-05-07T01:27:26;99635.09;;;14.19;74.95
77979;BME280;67169;50.268;8.694;2023-05-07T01:29:53;99640.06;;;14.27;74.39
77979;BME280;67169;50.268;8.694;2023-05-07T01:32:24;99631.19;;;14.25;75.17
77979;BME280;67169;50.268;8.694;2023-05-07T01:34:54;99632.06;;;14.25;74.53
77979;BME280;67169;50.268;8.694;2023-05-07T01:37:22;99639.38;;;14.23;74.97
77979;BME280;67169;50.268;8.694;2023-05-07T01:39:50;99639.38;;;14.23;74.74
77979;BME280;67169;50.268;8.694;2023-05-07T01:42:18;99632.81;;;14.28;74.85
77979;BME280;67169;50.268;8.694;2023-05-07T01:44:44;99633.63;;;14.30;74.98
77979;BME280;67169;50.268;8.694;2023-05-07T01:47:12;99633.09;;;14.23;74.34
77979;BME280;67169;50.268;8.694;2023-05-07T01:49:40;99623.59;;;14.32;73.71
77979;BME280;67169;50.268;8.694;2023-05-07T01:52:09;99619.28;;;14.28;74.18
77979;BME280;67169;50.268;8.694;2023-05-07T01:54:36;99623.06;;;14.25;74.16
77979;BME280;67169;50.268;8.694;2023-05-07T01:57:04;99619.56;;;14.23;74.42
77979;BME280;67169;50.268;8.694;2023-05-07T01:59:30;99614.41;;;14.18;74.13
77979;BME280;67169;50.268;8.694;2023-05-07T02:01:57;99615.34;;;14.17;74.18
77979;BME280;67169;50.268;8.694;2023-05-07T02:04:23;99613.88;;;14.12;75.10
77979;BME280;67169;50.268;8.694;2023-05-07T02:06:50;99621.88;;;14.13;74.91
77979;BME280;67169;50.268;8.694;2023-05-07T02:09:18;99619.28;;;14.12;74.28
77979;BME280;67169;50.268;8.694;2023-05-07T02:11:45;99627.31;;;14.13;74.31
77979;BME280;67169;50.268;8.694;2023-05-07T02:14:13;99607.81;;;14.07;73.88
77979;BME280;67169;50.268;8.694;2023-05-07T02:16:39;99616.59;;;14.12;74.32
77979;BME280;67169;50.268;8.694;2023-05-07T02:19:06;99618.31;;;14.13;73.90
77979;BME280;67169;50.268;8.694;2023-05-07T02:21:32;99632.00;;;14.10;74.87
77979;BME280;67169;50.268;8.694;2023-05-07T02:23:59;99633.94;;;14.08;74.93
77979;BME280;67169;50.268;8.694;2023-05-07T02:26:25;99625.91;;;14.06;74.04
77979;BME280;67169;50.268;8.694;2023-05-07T02:28:52;99645.78;;;14.05;75.16
77979;BME280;67169;50.268;8.694;2023-05-07T02:31:20;99630.59;;;14.02;74.46
77979;BME280;67169;50.268;8.694;2023-05-07T02:33:46;99626.22;;;14.00;74.73
77979;BME280;67169;50.268;8.694;2023-05-07T02:36:13;99636.25;;;13.98;74.20
77979;BME280;67169;50.268;8.694;2023-05-07T02:38:40;99638.00;;;13.99;74.42
77979;BME280;67169;50.268;8.694;2023-05-07T02:41:06;99636.25;;;13.98;74.49
77979;BME280;67169;50.268;8.694;2023-05-07T02:43:33;99632.91;;;13.93;74.80
77979;BME280;67169;50.268;8.694;2023-05-07T02:46:00;99634.59;;;13.95;75.51
77979;BME280;67169;50.268;8.694;2023-05-07T02:48:29;99627.06;;;13.85;76.17
77979;BME280;67169;50.268;8.694;2023-05-07T02:50:56;99635.41;;;13.97;75.26
77979;BME280;67169;50.268;8.694;2023-05-07T02:53:22;99626.75;;;14.07;74.43
77979;BME280;67169;50.268;8.694;2023-05-07T02:55:51;99630.53;;;14.04;75.09
77979;BME280;67169;50.268;8.694;2023-05-07T02:58:17;99632.69;;;13.97;74.88
77979;BME280;67169;50.268;8.694;2023-05-07T03:00:44;99637.19;;;13.97;75.49
77979;BME280;67169;50.268;8.694;2023-05-07T03:03:11;99643.72;;;13.93;75.22
77979;BME280;67169;50.268;8.694;2023-05-07T03:05:39;99638.84;;;13.84;75.74
77979;BME280;67169;50.268;8.694;2023-05-07T03:08:05;99632.72;;;13.80;75.09
77979;BME280;67169;50.268;8.694;2023-05-07T03:10:32;99637.31;;;13.78;76.21
77979;BME280;67169;50.268;8.694;2023-05-07T03:12:59;99644.41;;;13.81;75.54
77979;BME280;67169;50.268;8.694;2023-05-07T03:15:25;99638.75;;;13.85;75.13
77979;BME280;67169;50.268;8.694;2023-05-07T03:17:52;99622.84;;;13.79;75.60
77979;BME280;67169;50.268;8.694;2023-05-07T03:20:18;99639.22;;;13.76;76.16
77979;BME280;67169;50.268;8.694;2023-05-07T03:22:46;99628.66;;;13.71;76.17
77979;BME280;67169;50.268;8.694;2023-05-07T03:25:13;99626.25;;;13.83;75.49
77979;BME280;67169;50.268;8.694;2023-05-07T03:27:40;99631.06;;;13.77;75.56
77979;BME280;67169;50.268;8.694;2023-05-07T03:30:08;99629.13;;;13.80;74.95
77979;BME280;67169;50.268;8.694;2023-05-07T03:32:35;99632.47;;;13.85;74.70
77979;BME280;67169;50.268;8.694;2023-05-07T03:35:02;99628.25;;;13.79;74.82
77979;BME280;67169;50.268;8.694;2023-05-07T03:37:28;99634.72;;;13.76;74.42
77979;BME280;67169;50.268;8.694;2023-05-07T03:39:56;99614.53;;;13.66;75.21
77979;BME280;67169;50.268;8.694;2023-05-07T03:42:23;99625.97;;;13.71;75.53
77979;BME280;67169;50.268;8.694;2023-05-07T03:44:50;99628.81;;;13.68;75.94
77979;BME280;67169;50.268;8.694;2023-05-07T03:47:16;99626.13;;;13.68;75.50
77979;BME280;67169;50.268;8.694;2023-05-07T03:49:43;99631.69;;;13.65;76.06
77979;BME280;67169;50.268;8.694;2023-05-07T03:52:10;99621.03;;;13.62;76.33
77979;BME280;67169;50.268;8.694;2023-05-07T03:54:36;99630.13;;;13.61;76.35
77979;BME280;67169;50.268;8.694;2023-05-07T03:57:04;99623.69;;;13.64;75.72
77979;BME280;67169;50.268;8.694;2023-05-07T03:59:31;99626.28;;;13.65;75.13
77979;BME280;67169;50.268;8.694;2023-05-07T04:01:58;99627.16;;;13.66;75.70
77979;BME280;67169;50.268;8.694;2023-05-07T04:04:25;99626.84;;;13.72;75.43
77979;BME280;67169;50.268;8.694;2023-05-07T04:06:51;99624.28;;;13.69;75.21
77979;BME280;67169;50.268;8.694;2023-05-07T04:09:18;99628.06;;;13.66;75.99
77979;BME280;67169;50.268;8.694;2023-05-07T04:11:45;99626.44;;;13.62;76.30
77979;BME280;67169;50.268;8.694;2023-05-07T04:14:13;99630.13;;;13.61;76.80
77979;BME280;67169;50.268;8.694;2023-05-07T04:16:39;99627.50;;;13.60;76.87
77979;BME280;67169;50.268;8.694;2023-05-07T04:19:06;99632.00;;;13.59;77.34
77979;BME280;67169;50.268;8.694;2023-05-07T04:21:32;99633.94;;;13.57;77.63
77979;BME280;67169;50.268;8.694;2023-05-07T04:23:59;99637.41;;;13.59;77.82
77979;BME280;67169;50.268;8.694;2023-05-07T04:26:25;99644.09;;;13.69;77.03
77979;BME280;67169;50.268;8.694;2023-05-07T04:28:52;99643.16;;;13.70;76.92
77979;BME280;67169;50.268;8.694;2023-05-07T04:31:20;99638.94;;;13.65;77.16
77979;BME280;67169;50.268;8.694;2023-05-07T04:33:47;99642.34;;;13.68;76.96
77979;BME280;67169;50.268;8.694;2023-05-07T04:36:13;99647.91;;;13.65;76.44
77979;BME280;67169;50.268;8.694;2023-05-07T04:38:40;99628.38;;;13.60;76.13
77979;BME280;67169;50.268;8.694;2023-05-07T04:41:08;99650.44;;;13.68;75.49
77979;BME280;67169;50.268;8.694;2023-05-07T04:43:35;99652.53;;;13.81;74.99
77979;BME280;67169;50.268;8.694;2023-05-07T04:46:01;99661.72;;;13.94;74.13
77979;BME280;67169;50.268;8.694;2023-05-07T04:48:29;99660.94;;;13.92;74.13
77979;BME280;67169;50.268;8.694;2023-05-07T04:50:56;99677.00;;;13.95;73.71
77979;BME280;67169;50.268;8.694;2023-05-07T04:53:22;99672.66;;;14.08;74.21
77979;BME280;67169;50.268;8.694;2023-05-07T04:55:54;99678.25;;;14.05;74.14
77979;BME280;67169;50.268;8.694;2023-05-07T04:58:21;99668.38;;;14.04;74.25
77979;BME280;67169;50.268;8.694;2023-05-07T05:00:48;99671.88;;;14.06;74.90
77979;BME280;67169;50.268;8.694;2023-05-07T05:03:14;99672.50;;;14.11;74.72
77979;BME280;67169;50.268;8.694;2023-05-07T05:05:43;99669.91;;;14.25;74.21
77979;BME280;67169;50.268;8.694;2023-05-07T05:08:10;99663.72;;;14.23;74.06
77979;BME280;67169;50.268;8.694;2023-05-07T05:10:36;99678.97;;;14.24;74.41
77979;BME280;67169;50.268;8.694;2023-05-07T05:13:03;99683.88;;;14.34;73.57
77979;BME280;67169;50.268;8.694;2023-05-07T05:15:29;99687.94;;;14.42;73.53
77979;BME280;67169;50.268;8.694;2023-05-07T05:17:56;99686.69;;;14.48;72.91
77979;BME280;67169;50.268;8.694;2023-05-07T05:20:22;99682.25;;;14.47;72.61
77979;BME280;67169;50.268;8.694;2023-05-07T05:22:50;99688.72;;;14.44;72.50
77979;BME280;67169;50.268;8.694;2023-05-07T05:25:17;99688.94;;;14.57;72.91
77979;BME280;67169;50.268;8.694;2023-05-07T05:27:43;99695.84;;;14.63;72.52
77979;BME280;67169;50.268;8.694;2023-05-07T05:30:11;99693.22;;;14.61;72.07
77979;BME280;67169;50.268;8.694;2023-05-07T05:32:38;99697.06;;;14.57;73.08
77979;BME280;67169;50.268;8.694;2023-05-07T05:35:05;99698.28;;;14.67;72.73
77979;BME280;67169;50.268;8.694;2023-05-07T05:37:31;99692.63;;;14.72;72.53
77979;BME280;67169;50.268;8.694;2023-05-07T05:39:59;99689.94;;;14.88;71.97
77979;BME280;67169;50.268;8.694;2023-05-07T05:42:26;99699.97;;;14.86;71.86
77979;BME280;67169;50.268;8.694;2023-05-07T05:44:52;99694.13;;;14.93;71.87
77979;BME280;67169;50.268;8.694;2023-05-07T05:47:19;99701.97;;;14.98;72.25
77979;BME280;67169;50.268;8.694;2023-05-07T05:49:45;99700.03;;;15.00;72.25
77979;BME280;67169;50.268;8.694;2023-05-07T05:52:12;99698.91;;;15.20;71.06
77979;BME280;67169;50.268;8.694;2023-05-07T05:54:39;99699.59;;;15.24;71.34
77979;BME280;67169;50.268;8.694;2023-05-07T05:57:07;99700.78;;;15.34;70.32
77979;BME280;67169;50.268;8.694;2023-05-07T05:59:33;99705.75;;;15.41;70.20
77979;BME280;67169;50.268;8.694;2023-05-07T06:02:00;99704.53;;;15.47;70.30
77979;BME280;67169;50.268;8.694;2023-05-07T06:04:26;99702.22;;;15.55;69.77
77979;BME280;67169;50.268;8.694;2023-05-07T06:06:53;99697.97;;;15.51;69.80
77979;BME280;67169;50.268;8.694;2023-05-07T06:09:20;99709.06;;;15.62;69.72
77979;BME280;67169;50.268;8.694;2023-05-07T06:11:46;99698.88;;;15.82;69.80
77979;BME280;67169;50.268;8.694;2023-05-07T06:14:14;99702.56;;;15.95;69.21
77979;BME280;67169;50.268;8.694;2023-05-07T06:16:41;99706.19;;;16.10;68.13
77979;BME280;67169;50.268;8.694;2023-05-07T06:19:07;99699.13;;;16.07;68.77
77979;BME280;67169;50.268;8.694;2023-05-07T06:21:34;99707.66;;;16.16;68.08
77979;BME280;67169;50.268;8.694;2023-05-07T06:24:00;99700.00;;;16.22;68.18
77979;BME280;67169;50.268;8.694;2023-05-07T06:26:27;99705.63;;;16.19;68.78
77979;BME280;67169;50.268;8.694;2023-05-07T06:28:53;99705.69;;;16.03;68.93
77979;BME280;67169;50.268;8.694;2023-05-07T06:31:21;99706.66;;;16.02;68.30
77979;BME280;67169;50.268;8.694;2023-05-07T06:33:48;99711.31;;;16.00;68.62
77979;BME280;67169;50.268;8.694;2023-05-07T06:36:15;99710.34;;;16.01;68.68
77979;BME280;67169;50.268;8.694;2023-05-07T06:38:41;99700.91;;;15.93;70.07
77979;BME280;67169;50.268;8.694;2023-05-07T06:41:08;99720.50;;;15.98;69.77
77979;BME280;67169;50.268;8.694;2023-05-07T06:43:35;99717.50;;;16.02;70.05
77979;BME280;67169;50.268;8.694;2023-05-07T06:46:02;99714.94;;;16.15;70.16
77979;BME280;67169;50.268;8.694;2023-05-07T06:48:30;99722.19;;;16.14;68.74
77979;BME280;67169;50.268;8.694;2023-05-07T06:50:56;99720.97;;;16.34;68.50
77979;BME280;67169;50.268;8.694;2023-05-07T06:53:23;99723.50;;;16.52;68.33
77979;BME280;67169;50.268;8.694;2023-05-07T06:55:51;99721.44;;;16.55;66.88
77979;BME280;67169;50.268;8.694;2023-05-07T06:58:17;99715.13;;;16.41;66.32
77979;BME280;67169;50.268;8.694;2023-05-07T07:00:44;99716.19;;;16.67;66.77
77979;BME280;67169;50.268;8.694;2023-05-07T07:03:11;99715.72;;;16.74;65.73
77979;BME280;67169;50.268;8.694;2023-05-07T07:05:40;99719.03;;;16.79;65.79
77979;BME280;67169;50.268;8.694;2023-05-07T07:08:07;99714.75;;;16.90;65.36
77979;BME280;67169;50.268;8.694;2023-05-07T07:10:33;99719.28;;;17.03;65.55
77979;BME280;67169;50.268;8.694;2023-05-07T07:13:00;99720.53;;;17.12;64.86
77979;BME280;67169;50.268;8.694;2023-05-07T07:15:26;99722.66;;;17.34;63.50
77979;BME280;67169;50.268;8.694;2023-05-07T07:17:53;99720.59;;;17.25;62.78
77979;BME280;67169;50.268;8.694;2023-05-07T07:20:20;99728.94;;;17.49;64.21
77979;BME280;67169;50.268;8.694;2023-05-07T07:22:48;99729.81;;;17.49;63.81
77979;BME280;67169;50.268;8.694;2023-05-07T07:25:14;99724.84;;;17.56;62.91
77979;BME280;67169;50.268;8.694;2023-05-07T07:27:41;99731.19;;;17.69;63.74
77979;BME280;67169;50.268;8.694;2023-05-07T07:30:08;99732.16;;;17.95;61.96
77979;BME280;67169;50.268;8.694;2023-05-07T07:32:35;99731.06;;;17.98;61.09
77979;BME280;67169;50.268;8.694;2023-05-07T07:35:01;99726.41;;;17.73;61.52
77979;BME280;67169;50.268;8.694;2023-05-07T07:37:28;99736.59;;;17.84;61.15
77979;BME280;67169;50.268;8.694;2023-05-07T07:39:56;99736.28;;;17.88;60.96
77979;BME280;67169;50.268;8.694;2023-05-07T07:42:23;99737.13;;;17.89;61.87
77979;BME280;67169;50.268;8.694;2023-05-07T07:44:49;99735.22;;;18.03;61.86
77979;BME280;67169;50.268;8.694;2023-05-07T07:47:16;99738.28;;;18.12;60.94
77979;BME280;67169;50.268;8.694;2023-05-07T07:49:42;99734.25;;;18.30;60.50
77979;BME280;67169;50.268;8.694;2023-05-07T07:52:09;99741.66;;;18.54;59.66
77979;BME280;67169;50.268;8.694;2023-05-07T07:54:36;99741.38;;;18.58;58.60
77979;BME280;67169;50.268;8.694;2023-05-07T07:57:04;99736.31;;;18.65;59.25
77979;BME280;67169;50.268;8.694;2023-05-07T07:59:31;99740.69;;;18.55;58.63
77979;BME280;67169;50.268;8.694;2023-05-07T08:01:57;99741.31;;;18.71;58.54
77979;BME280;67169;50.268;8.694;2023-05-07T08:04:24;99736.56;;;18.74;58.60
77979;BME280;67169;50.268;8.694;2023-05-07T08:06:50;99735.78;;;18.85;59.94
77979;BME280;67169;50.268;8.694;2023-05-07T08:09:17;99733.53;;;18.79;58.55
77979;BME280;67169;50.268;8.694;2023-05-07T08:11:43;99748.97;;;18.91;60.21
77979;BME280;67169;50.268;8.694;2023-05-07T08:14:11;99744.41;;;18.79;59.80
77979;BME280;67169;50.268;8.694;2023-05-07T08:16:38;99741.28;;;18.72;60.11
77979;BME280;67169;50.268;8.694;2023-05-07T08:19:05;99738.94;;;18.92;60.27
77979;BME280;67169;50.268;8.694;2023-05-07T08:21:31;99739.75;;;19.18;60.28
77979;BME280;67169;50.268;8.694;2023-05-07T08:23:58;99740.81;;;19.28;58.90
77979;BME280;67169;50.268;8.694;2023-05-07T08:26:24;99725.19;;;19.30;59.66
77979;BME280;67169;50.268;8.694;2023-05-07T08:28:51;99727.13;;;19.17;59.02
77979;BME280;67169;50.268;8.694;2023-05-07T08:31:19;99724.00;;;19.34;59.64
77979;BME280;67169;50.268;8.694;2023-05-07T08:33:45;99720.03;;;19.38;59.10
77979;BME280;67169;50.268;8.694;2023-05-07T08:36:12;99724.22;;;19.31;57.64
77979;BME280;67169;50.268;8.694;2023-05-07T08:38:38;99727.81;;;19.32;58.56
77979;BME280;67169;50.268;8.694;2023-05-07T08:41:09;99734.25;;;19.31;58.72
77979;BME280;67169;50.268;8.694;2023-05-07T08:43:37;99728.88;;;19.42;57.56
77979;BME280;67169;50.268;8.694;2023-05-07T08:46:09;99728.31;;;19.61;56.91
77979;BME280;67169;50.268;8.694;2023-05-07T08:48:37;99717.91;;;19.55;57.19
77979;BME280;67169;50.268;8.694;2023-05-07T08:51:04;99726.97;;;19.79;57.81
77979;BME280;67169;50.268;8.694;2023-05-07T08:53:31;99721.97;;;19.73;57.09
77979;BME280;67169;50.268;8.694;2023-05-07T08:55:58;99706.78;;;19.93;55.29
77979;BME280;67169;50.268;8.694;2023-05-07T08:58:25;99722.88;;;20.20;56.10
77979;BME280;67169;50.268;8.694;2023-05-07T09:00:52;99719.53;;;20.17;55.40
77979;BME280;67169;50.268;8.694;2023-05-07T09:03:20;99662.53;;;19.65;55.80
77979;BME280;67169;50.268;8.694;2023-05-07T09:05:48;99727.78;;;20.04;56.34
77979;BME280;67169;50.268;8.694;2023-05-07T09:08:15;99724.84;;;20.18;55.54
77979;BME280;67169;50.268;8.694;2023-05-07T09:10:41;99732.91;;;20.20;53.44
77979;BME280;67169;50.268;8.694;2023-05-07T09:13:08;99724.84;;;20.18;54.57
77979;BME280;67169;50.268;8.694;2023-05-07T09:15:35;99727.66;;;20.41;52.54
77979;BME280;67169;50.268;8.694;2023-05-07T09:18:02;99718.63;;;20.62;49.49
77979;BME280;67169;50.268;8.694;2023-05-07T09:20:30;99720.25;;;20.65;50.10
77979;BME280;67169;50.268;8.694;2023-05-07T09:22:58;99720.47;;;20.73;52.76
77979;BME280;67169;50.268;8.694;2023-05-07T09:25:29;99714.13;;;20.84;52.42
77979;BME280;67169;50.268;8.694;2023-05-07T09:27:56;99713.22;;;21.28;50.91
77979;BME280;67169;50.268;8.694;2023-05-07T09:30:22;99707.97;;;21.37;49.27
77979;BME280;67169;50.268;8.694;2023-05-07T09:32:49;99709.84;;;21.79;50.04
77979;BME280;67169;50.268;8.694;2023-05-07T09:35:16;99713.59;;;21.78;49.09
77979;BME280;67169;50.268;8.694;2023-05-07T09:37:43;99713.44;;;21.80;50.83
77979;BME280;67169;50.268;8.694;2023-05-07T09:40:20;99714.78;;;21.86;51.34
77979;BME280;67169;50.268;8.694;2023-05-07T09:42:47;99707.31;;;22.09;50.26
77979;BME280;67169;50.268;8.694;2023-05-07T09:45:14;99711.63;;;22.22;49.14
77979;BME280;67169;50.268;8.694;2023-05-07T09:47:42;99695.94;;;22.24;49.08
77979;BME280;67169;50.268;8.694;2023-05-07T09:50:12;99706.41;;;22.40;47.45
77979;BME280;67169;50.268;8.694;2023-05-07T09:52:42;99698.50;;;22.47;48.46
77979;BME280;67169;50.268;8.694;2023-05-07T09:55:10;99709.56;;;22.15;48.17
77979;BME280;67169;50.268;8.694;2023-05-07T09:57:40;99698.81;;;22.12;47.29
77979;BME280;67169;50.268;8.694;2023-05-07T10:00:08;99714.25;;;22.24;49.26
77979;BME280;67169;50.268;8.694;2023-05-07T10:02:39;99714.16;;;22.35;48.57
77979;BME280;67169;50.268;8.694;2023-05-07T10:05:12;99697.28;;;21.98;49.49
77979;BME280;67169;50.268;8.694;2023-05-07T10:07:39;99705.47;;;22.51;50.80
77979;BME280;67169;50.268;8.694;2023-05-07T10:10:07;99708.28;;;23.01;48.51
77979;BME280;67169;50.268;8.694;2023-05-07T10:12:34;99701.19;;;23.49;43.91
77979;BME280;67169;50.268;8.694;2023-05-07T10:15:07;99697.31;;;23.71;43.70
77979;BME280;67169;50.268;8.694;2023-05-07T10:17:35;99700.25;;;23.88;44.10
77979;BME280;67169;50.268;8.694;2023-05-07T10:20:02;99694.16;;;23.85;46.47
77979;BME280;67169;50.268;8.694;2023-05-07T10:22:31;99696.41;;;23.60;47.18
77979;BME280;67169;50.268;8.694;2023-05-07T10:24:59;99684.78;;;23.68;45.63
77979;BME280;67169;50.268;8.694;2023-05-07T10:27:29;99691.97;;;24.17;44.73
77979;BME280;67169;50.268;8.694;2023-05-07T10:30:07;99694.88;;;24.06;44.19
77979;BME280;67169;50.268;8.694;2023-05-07T10:32:42;99697.75;;;24.05;42.64
77979;BME280;67169;50.268;8.694;2023-05-07T10:35:13;99687.41;;;24.55;44.68
77979;BME280;67169;50.268;8.694;2023-05-07T10:37:41;99673.31;;;24.02;44.49
77979;BME280;67169;50.268;8.694;2023-05-07T10:40:10;99698.19;;;24.00;46.53
77979;BME280;67169;50.268;8.694;2023-05-07T10:42:36;99694.09;;;23.46;46.49
77979;BME280;67169;50.268;8.694;2023-05-07T10:45:12;99701.78;;;23.62;46.52
77979;BME280;67169;50.268;8.694;2023-05-07T10:48:08;99704.44;;;23.83;46.58
77979;BME280;67169;50.268;8.694;2023-05-07T10:50:35;99697.91;;;23.74;46.83
77979;BME280;67169;50.268;8.694;2023-05-07T10:53:21;99697.16;;;24.01;45.40
77979;BME280;67169;50.268;8.694;2023-05-07T10:55:50;99692.56;;;23.92;47.30
77979;BME280;67169;50.268;8.694;2023-05-07T10:58:24;99692.41;;;24.03;46.65
77979;BME280;67169;50.268;8.694;2023-05-07T11:00:56;99685.91;;;24.04;44.04
77979;BME280;67169;50.268;8.694;2023-05-07T11:03:25;99690.22;;;24.26;42.83
77979;BME280;67169;50.268;8.694;2023-05-07T11:06:12;99688.06;;;24.10;43.42
77979;BME280;67169;50.268;8.694;2023-05-07T11:08:54;99675.75;;;24.05;47.58
77979;BME280;67169;50.268;8.694;2023-05-07T11:11:44;99683.31;;;24.97;42.63
77979;BME280;67169;50.268;8.694;2023-05-07T11:14:10;99685.13;;;25.43;43.12
77979;BME280;67169;50.268;8.694;2023-05-07T11:16:37;99683.91;;;25.46;42.10
77979;BME280;67169;50.268;8.694;2023-05-07T11:19:06;99688.16;;;24.85;44.34
77979;BME280;67169;50.268;8.694;2023-05-07T11:21:34;99682.06;;;24.54;42.64
77979;BME280;67169;50.268;8.694;2023-05-07T11:24:02;99678.88;;;24.86;44.70
77979;BME280;67169;50.268;8.694;2023-05-07T11:26:30;99672.03;;;25.27;42.34
77979;BME280;67169;50.268;8.694;2023-05-07T11:28:57;99676.31;;;25.75;44.61
77979;BME280;67169;50.268;8.694;2023-05-07T11:31:27;99675.56;;;25.38;43.38
77979;BME280;67169;50.268;8.694;2023-05-07T11:33:55;99679.88;;;25.86;42.35
77979;BME280;67169;50.268;8.694;2023-05-07T11:36:23;99681.06;;;25.83;42.70
77979;BME280;67169;50.268;8.694;2023-05-07T11:38:51;99678.94;;;26.21;40.35
77979;BME280;67169;50.268;8.694;2023-05-07T11:41:18;99675.28;;;26.12;43.00
77979;BME280;67169;50.268;8.694;2023-05-07T11:43:57;99673.19;;;25.25;42.64
77979;BME280;67169;50.268;8.694;2023-05-07T11:46:24;99666.47;;;25.55;42.47
77979;BME280;67169;50.268;8.694;2023-05-07T11:48:51;99672.56;;;25.03;45.46
77979;BME280;67169;50.268;8.694;2023-05-07T11:51:22;99669.75;;;25.23;44.89
77979;BME280;67169;50.268;8.694;2023-05-07T11:53:50;99669.16;;;25.47;43.50
77979;BME280;67169;50.268;8.694;2023-05-07T11:56:17;99671.25;;;25.35;43.28
77979;BME280;67169;50.268;8.694;2023-05-07T11:58:46;99663.09;;;25.61;44.78
77979;BME280;67169;50.268;8.694;2023-05-07T12:01:13;99657.09;;;25.66;43.93
77979;BME280;67169;50.268;8.694;2023-05-07T12:03:42;99668.19;;;25.38;43.00
77979;BME280;67169;50.268;8.694;2023-05-07T12:06:09;99658.75;;;25.76;43.29
77979;BME280;67169;50.268;8.694;2023-05-07T12:08:38;99667.72;;;26.40;42.03
77979;BME280;67169;50.268;8.694;2023-05-07T12:11:08;99658.81;;;25.67;41.66
77979;BME280;67169;50.268;8.694;2023-05-07T12:13:36;99653.31;;;25.49;43.24
77979;BME280;67169;50.268;8.694;2023-05-07T12:16:05;99659.00;;;25.47;43.25
77979;BME280;67169;50.268;8.694;2023-05-07T12:18:34;99660.41;;;26.05;40.95
77979;BME280;67169;50.268;8.694;2023-05-07T12:21:02;99642.22;;;25.76;41.99
77979;BME280;67169;50.268;8.694;2023-05-07T12:23:30;99650.72;;;25.65;43.03
77979;BME280;67169;50.268;8.694;2023-05-07T12:25:56;99650.50;;;25.58;43.30
77979;BME280;67169;50.268;8.694;2023-05-07T12:28:25;99646.69;;;25.60;42.76
77979;BME280;67169;50.268;8.694;2023-05-07T12:30:51;99648.50;;;26.04;43.60
77979;BME280;67169;50.268;8.694;2023-05-07T12:33:22;99644.78;;;26.14;41.45
77979;BME280;67169;50.268;8.694;2023-05-07T12:35:49;99651.78;;;26.26;42.75
77979;BME280;67169;50.268;8.694;2023-05-07T12:38:17;99658.19;;;26.35;41.86
77979;BME280;67169;50.268;8.694;2023-05-07T12:40:45;99647.22;;;26.69;39.93
77979;BME280;67169;50.268;8.694;2023-05-07T12:43:16;99644.94;;;26.38;40.28
77979;BME280;67169;50.268;8.694;2023-05-07T12:45:46;99643.50;;;25.82;42.10
77979;BME280;67169;50.268;8.694;2023-05-07T12:48:13;99644.19;;;26.02;41.84
77979;BME280;67169;50.268;8.694;2023-05-07T12:50:40;99648.88;;;26.36;37.59
77979;BME280;67169;50.268;8.694;2023-05-07T12:53:07;99634.97;;;26.45;37.35
77979;BME280;67169;50.268;8.694;2023-05-07T12:55:41;99634.91;;;26.97;37.59
77979;BME280;67169;50.268;8.694;2023-05-07T12:58:14;99610.44;;;26.94;38.63
77979;BME280;67169;50.268;8.694;2023-05-07T13:00:41;99640.94;;;26.93;37.79
77979;BME280;67169;50.268;8.694;2023-05-07T13:03:10;99627.56;;;26.64;37.77